Time;durP1;ratioP1;P1;durP2;ratioP2;P2;SDS_P1;SDS_P2;PMS_P1;PMS_P2;Temp;Humidity;BMP_temperature;BMP_pressure;BME280_temperature;BME280_humidity;BME280_pressure;Samples;Min_cycle;Max_cycle;Signal;HPM_P1;HPM_P2
2023/09/09 00:00:57;;;;;;;427.20;144.90;;;;;;;;;;4997454;28;20145;-55
2023/09/09 00:03:23;;;;;;;464.10;147.48;;;;;;;;;;5002388;28;20038;-56
2023/09/09 00:05:51;;;;;;;458.08;147.13;;;;;;;;;;4997289;28;20060;-55
2023/09/09 00:08:18;;;;;;;418.98;150.23;;;;;;;;;;4996397;28;20057;-56
2023/09/09 00:10:43;;;;;;;586.10;157.38;;;;;;;;;;4992965;28;20034;-55
2023/09/09 00:13:09;;;;;;;429.67;151.57;;;;;;;;;;4996342;28;20014;-57
2023/09/09 00:15:34;;;;;;;560.75;154.68;;;;;;;;;;5000029;28;20297;-55
2023/09/09 00:18:00;;;;;;;450.13;152.73;;;;;;;;;;5001403;28;20032;-54
2023/09/09 00:20:29;;;;;;;451.70;153.52;;;;;;;;;;4994391;28;20156;-53
2023/09/09 00:22:55;;;;;;;429.02;150.07;;;;;;;;;;4995368;28;20563;-56
2023/09/09 00:25:20;;;;;;;476.75;155.35;;;;;;;;;;4994575;28;20047;-54
2023/09/09 00:27:45;;;;;;;508.67;155.37;;;;;;;;;;4997393;28;20018;-54
2023/09/09 00:30:10;;;;;;;429.43;147.20;;;;;;;;;;4996426;28;20271;-55
2023/09/09 00:32:36;;;;;;;590.38;157.82;;;;;;;;;;4994111;28;20253;-54
2023/09/09 00:35:01;;;;;;;433.52;151.43;;;;;;;;;;4995185;28;20045;-54
2023/09/09 00:37:26;;;;;;;457.35;154.73;;;;;;;;;;4998379;28;20037;-56
2023/09/09 00:39:51;;;;;;;506.93;157.93;;;;;;;;;;4995357;28;20274;-55
2023/09/09 00:42:17;;;;;;;426.35;154.20;;;;;;;;;;4996898;28;20265;-54
2023/09/09 00:44:42;;;;;;;541.47;160.93;;;;;;;;;;4996310;28;20398;-55
2023/09/09 00:47:07;;;;;;;492.60;157.87;;;;;;;;;;4998013;28;20124;-54
2023/09/09 00:49:32;;;;;;;452.50;156.25;;;;;;;;;;4994675;28;20261;-55
2023/09/09 00:51:58;;;;;;;467.00;158.57;;;;;;;;;;4997273;28;20045;-54
2023/09/09 00:54:23;;;;;;;493.05;159.90;;;;;;;;;;4998719;28;20327;-54
2023/09/09 00:56:50;;;;;;;548.83;163.05;;;;;;;;;;4992852;28;20042;-54
2023/09/09 00:59:15;;;;;;;456.83;159.32;;;;;;;;;;4998404;28;20097;-56
2023/09/09 01:01:40;;;;;;;614.00;167.07;;;;;;;;;;4994203;28;20042;-54
2023/09/09 01:04:06;;;;;;;410.05;154.73;;;;;;;;;;4993701;28;20484;-55
2023/09/09 01:06:31;;;;;;;450.92;159.23;;;;;;;;;;4997624;28;20040;-53
2023/09/09 01:08:57;;;;;;;466.10;160.95;;;;;;;;;;4995112;28;20096;-54
2023/09/09 01:11:22;;;;;;;443.52;158.30;;;;;;;;;;4996323;28;20093;-55
2023/09/09 01:13:47;;;;;;;600.28;165.68;;;;;;;;;;4992637;28;20071;-56
2023/09/09 01:16:13;;;;;;;429.02;157.50;;;;;;;;;;4993259;28;20046;-55
2023/09/09 01:18:38;;;;;;;515.13;161.45;;;;;;;;;;4991648;28;20095;-56
2023/09/09 01:21:04;;;;;;;417.40;157.38;;;;;;;;;;4994116;28;20041;-56
2023/09/09 01:23:29;;;;;;;438.95;159.02;;;;;;;;;;4994616;28;20586;-55
2023/09/09 01:25:54;;;;;;;478.45;160.88;;;;;;;;;;4990720;28;20567;-53
2023/09/09 01:28:22;;;;;;;442.85;156.73;;;;;;;;;;4994985;28;20030;-53
2023/09/09 01:30:47;;;;;;;576.38;165.52;;;;;;;;;;4990102;28;20037;-53
2023/09/09 01:33:12;;;;;;;487.50;159.73;;;;;;;;;;4996282;28;20023;-54
2023/09/09 01:35:38;;;;;;;501.75;162.98;;;;;;;;;;4995542;28;20040;-54
2023/09/09 01:38:03;;;;;;;427.70;159.83;;;;;;;;;;4997653;28;20424;-54
2023/09/09 01:40:28;;;;;;;461.13;160.25;;;;;;;;;;4997977;28;20635;-54
2023/09/09 01:42:53;;;;;;;435.13;160.10;;;;;;;;;;4991427;28;20571;-56
2023/09/09 01:45:19;;;;;;;455.33;160.18;;;;;;;;;;4995714;28;20032;-54
2023/09/09 01:47:44;;;;;;;631.72;169.45;;;;;;;;;;4995502;28;20048;-54
2023/09/09 01:50:09;;;;;;;434.45;158.95;;;;;;;;;;4995432;28;20022;-55
2023/09/09 01:52:35;;;;;;;434.60;156.45;;;;;;;;;;4997017;28;20033;-53
2023/09/09 01:55:00;;;;;;;453.17;156.00;;;;;;;;;;4997381;28;20084;-54
2023/09/09 01:57:26;;;;;;;444.07;157.50;;;;;;;;;;4997354;28;20038;-54
2023/09/09 01:59:52;;;;;;;597.42;166.00;;;;;;;;;;5002756;28;20442;-55
2023/09/09 02:02:17;;;;;;;473.13;159.80;;;;;;;;;;4993412;28;20518;-54
2023/09/09 02:04:42;;;;;;;512.53;162.80;;;;;;;;;;4994917;28;20025;-55
2023/09/09 02:07:08;;;;;;;430.02;157.43;;;;;;;;;;4994178;28;20311;-55
2023/09/09 02:09:33;;;;;;;494.80;161.73;;;;;;;;;;4996559;28;20443;-57
2023/09/09 02:11:58;;;;;;;455.25;159.63;;;;;;;;;;4994728;28;20774;-55
2023/09/09 02:14:24;;;;;;;424.33;159.90;;;;;;;;;;4996309;28;20026;-54
2023/09/09 02:16:49;;;;;;;616.60;168.48;;;;;;;;;;4993607;28;20053;-54
2023/09/09 02:19:14;;;;;;;419.50;159.50;;;;;;;;;;4997029;28;20583;-55
2023/09/09 02:21:39;;;;;;;482.73;163.37;;;;;;;;;;4992674;28;20787;-53
2023/09/09 02:24:05;;;;;;;461.58;162.77;;;;;;;;;;4998280;28;20956;-55
2023/09/09 02:26:30;;;;;;;463.48;162.52;;;;;;;;;;4996489;28;20045;-54
2023/09/09 02:28:55;;;;;;;496.90;163.27;;;;;;;;;;4990754;28;20113;-55
2023/09/09 02:31:20;;;;;;;449.00;163.27;;;;;;;;;;4993822;28;20887;-55
2023/09/09 02:33:46;;;;;;;604.23;169.47;;;;;;;;;;4993359;28;20028;-55
2023/09/09 02:36:11;;;;;;;443.30;161.23;;;;;;;;;;4994438;28;20836;-55
2023/09/09 02:38:36;;;;;;;466.63;163.43;;;;;;;;;;4995426;28;20034;-55
2023/09/09 02:41:02;;;;;;;445.23;164.02;;;;;;;;;;4994571;28;20038;-56
2023/09/09 02:43:27;;;;;;;434.92;162.10;;;;;;;;;;4994537;28;20023;-54
2023/09/09 02:45:52;;;;;;;611.87;170.53;;;;;;;;;;4998736;28;20038;-54
2023/09/09 02:48:17;;;;;;;464.33;163.53;;;;;;;;;;4994270;28;20289;-56
2023/09/09 02:50:42;;;;;;;559.77;169.40;;;;;;;;;;4990226;28;20276;-54
2023/09/09 02:53:08;;;;;;;459.23;166.18;;;;;;;;;;4996446;28;20275;-56
2023/09/09 02:55:33;;;;;;;464.13;167.02;;;;;;;;;;4996687;28;20110;-55
2023/09/09 02:57:58;;;;;;;429.67;163.75;;;;;;;;;;4995418;28;20045;-55
2023/09/09 03:00:23;;;;;;;460.85;165.20;;;;;;;;;;4994043;28;20038;-55
2023/09/09 03:02:49;;;;;;;512.28;168.70;;;;;;;;;;4990992;28;20022;-55
2023/09/09 03:05:15;;;;;;;447.50;166.52;;;;;;;;;;4995213;28;20033;-56
2023/09/09 03:07:43;;;;;;;462.15;165.77;;;;;;;;;;4998273;28;20484;-54
2023/09/09 03:10:08;;;;;;;472.23;168.52;;;;;;;;;;4997583;28;20013;-54
2023/09/09 03:12:33;;;;;;;431.48;168.90;;;;;;;;;;4997251;28;20038;-54
2023/09/09 03:14:59;;;;;;;472.20;167.63;;;;;;;;;;4997990;28;20104;-55
2023/09/09 03:17:28;;;;;;;455.90;167.30;;;;;;;;;;4999584;28;20296;-54
2023/09/09 03:19:53;;;;;;;604.22;174.75;;;;;;;;;;4995456;28;20314;-57
2023/09/09 03:22:18;;;;;;;447.13;164.23;;;;;;;;;;5000532;28;20045;-53
2023/09/09 03:24:44;;;;;;;526.37;171.90;;;;;;;;;;5000292;28;20269;-55
2023/09/09 03:27:09;;;;;;;450.90;166.95;;;;;;;;;;4996914;28;20272;-56
2023/09/09 03:29:35;;;;;;;460.37;169.43;;;;;;;;;;4998118;28;20061;-56
2023/09/09 03:32:00;;;;;;;464.80;166.55;;;;;;;;;;4997089;28;21900;-55
2023/09/09 03:34:25;;;;;;;453.30;168.43;;;;;;;;;;4998419;28;20768;-56
2023/09/09 03:36:50;;;;;;;613.27;176.73;;;;;;;;;;4996080;28;20049;-56
2023/09/09 03:39:16;;;;;;;452.97;166.90;;;;;;;;;;4998940;28;21044;-54
2023/09/09 03:41:41;;;;;;;428.92;166.32;;;;;;;;;;4998764;28;21071;-54
2023/09/09 03:44:06;;;;;;;421.27;164.95;;;;;;;;;;5000324;28;20693;-54
2023/09/09 03:46:32;;;;;;;477.20;168.90;;;;;;;;;;4996923;28;20104;-55
2023/09/09 03:48:57;;;;;;;572.45;174.18;;;;;;;;;;4998358;28;20032;-56
2023/09/09 03:51:22;;;;;;;463.38;167.65;;;;;;;;;;4999517;28;20031;-56
2023/09/09 03:53:48;;;;;;;584.97;175.18;;;;;;;;;;4997106;28;20014;-56
2023/09/09 03:56:13;;;;;;;448.03;168.57;;;;;;;;;;4999319;28;20050;-56
2023/09/09 03:58:38;;;;;;;421.65;168.25;;;;;;;;;;4999999;28;20279;-56
2023/09/09 04:01:07;;;;;;;468.20;170.90;;;;;;;;;;4998253;28;20499;-56
2023/09/09 04:03:34;;;;;;;431.17;168.77;;;;;;;;;;4998386;28;20038;-53
2023/09/09 04:06:04;;;;;;;573.70;171.60;;;;;;;;;;4995507;28;20522;-55
2023/09/09 04:08:29;;;;;;;441.52;161.23;;;;;;;;;;4995632;28;20031;-53
2023/09/09 04:10:55;;;;;;;565.63;167.43;;;;;;;;;;4995562;28;20026;-55
2023/09/09 04:13:20;;;;;;;458.08;165.52;;;;;;;;;;4998545;28;20452;-56
2023/09/09 04:15:45;;;;;;;501.55;167.27;;;;;;;;;;4998103;28;20033;-55
2023/09/09 04:18:12;;;;;;;423.10;164.25;;;;;;;;;;4999363;28;20025;-54
2023/09/09 04:20:38;;;;;;;429.05;147.10;;;;;;;;;;4999102;28;20025;-56
2023/09/09 04:23:03;;;;;;;382.02;129.23;;;;;;;;;;4993708;28;20123;-53
2023/09/09 04:25:28;;;;;;;389.42;136.23;;;;;;;;;;4998247;28;20029;-55
2023/09/09 04:27:53;;;;;;;466.77;131.87;;;;;;;;;;4996496;28;20084;-55
2023/09/09 04:30:19;;;;;;;383.73;135.67;;;;;;;;;;4997727;28;20268;-56
2023/09/09 04:32:44;;;;;;;400.52;142.38;;;;;;;;;;4996865;28;20750;-53
2023/09/09 04:35:09;;;;;;;402.93;143.97;;;;;;;;;;4998173;28;20046;-56
2023/09/09 04:37:34;;;;;;;420.25;145.70;;;;;;;;;;4998438;28;20594;-56
2023/09/09 04:40:00;;;;;;;536.17;152.95;;;;;;;;;;4992939;28;20056;-54
2023/09/09 04:42:26;;;;;;;389.13;146.43;;;;;;;;;;4993202;28;20073;-54
2023/09/09 04:44:51;;;;;;;617.95;159.95;;;;;;;;;;4995066;28;20348;-55
2023/09/09 04:47:16;;;;;;;381.00;147.98;;;;;;;;;;4996086;28;20662;-54
2023/09/09 04:49:41;;;;;;;412.73;149.00;;;;;;;;;;4995898;28;20025;-53
2023/09/09 04:52:07;;;;;;;457.55;152.95;;;;;;;;;;4991822;28;20273;-53
2023/09/09 04:54:32;;;;;;;412.63;149.20;;;;;;;;;;4992952;28;20559;-54
2023/09/09 04:56:57;;;;;;;505.75;154.82;;;;;;;;;;4993976;28;20316;-55
2023/09/09 04:59:22;;;;;;;476.23;154.32;;;;;;;;;;4996761;28;20033;-54
2023/09/09 05:01:48;;;;;;;482.00;155.23;;;;;;;;;;4992665;28;20037;-54
2023/09/09 05:04:13;;;;;;;426.73;152.20;;;;;;;;;;4996060;28;20064;-54
2023/09/09 05:06:38;;;;;;;440.70;153.40;;;;;;;;;;4995928;28;20288;-54
2023/09/09 05:09:04;;;;;;;552.28;159.63;;;;;;;;;;4993894;28;20026;-54
2023/09/09 05:11:29;;;;;;;431.70;153.65;;;;;;;;;;4996053;28;20034;-54
2023/09/09 05:13:54;;;;;;;533.40;158.73;;;;;;;;;;4992063;28;20102;-57
2023/09/09 05:16:19;;;;;;;426.98;153.07;;;;;;;;;;4993301;28;20467;-53
2023/09/09 05:18:45;;;;;;;412.50;154.00;;;;;;;;;;4996856;28;20289;-54
2023/09/09 05:21:10;;;;;;;451.15;154.07;;;;;;;;;;4993711;28;20862;-55
2023/09/09 05:23:35;;;;;;;447.10;156.27;;;;;;;;;;4993263;28;20030;-54
2023/09/09 05:26:01;;;;;;;547.47;161.07;;;;;;;;;;4995295;28;20276;-56
2023/09/09 05:28:26;;;;;;;412.90;135.18;;;;;;;;;;5000228;28;20029;-56
2023/09/09 05:30:51;;;;;;;488.60;141.70;;;;;;;;;;4993202;28;20023;-55
2023/09/09 05:33:16;;;;;;;415.15;136.93;;;;;;;;;;4995334;28;20265;-54
2023/09/09 05:35:42;;;;;;;409.73;134.43;;;;;;;;;;4995601;28;20190;-55
2023/09/09 05:38:07;;;;;;;406.45;134.20;;;;;;;;;;4996367;28;20422;-55
2023/09/09 05:40:32;;;;;;;385.42;114.90;;;;;;;;;;4995941;28;20037;-55
2023/09/09 05:42:58;;;;;;;421.87;102.33;;;;;;;;;;4997350;28;20033;-55
2023/09/09 05:45:23;;;;;;;424.57;109.57;;;;;;;;;;4994778;28;20722;-53
2023/09/09 05:47:48;;;;;;;346.77;99.07;;;;;;;;;;4993283;28;20431;-53
2023/09/09 05:50:14;;;;;;;360.07;99.07;;;;;;;;;;4993749;28;20272;-55
2023/09/09 05:52:40;;;;;;;431.67;115.30;;;;;;;;;;4993870;28;20271;-53
2023/09/09 05:55:05;;;;;;;438.00;118.35;;;;;;;;;;4999368;28;20052;-54
2023/09/09 05:57:34;;;;;;;376.58;114.65;;;;;;;;;;4997667;28;20124;-53
2023/09/09 05:59:59;;;;;;;588.08;125.88;;;;;;;;;;4992818;28;20571;-55
2023/09/09 06:02:25;;;;;;;378.40;112.82;;;;;;;;;;4980854;28;20126;-54
2023/09/09 06:04:50;;;;;;;401.13;114.90;;;;;;;;;;4991978;28;20483;-53
2023/09/09 06:07:15;;;;;;;371.10;102.87;;;;;;;;;;4996250;28;20042;-53
2023/09/09 06:09:40;;;;;;;400.60;108.97;;;;;;;;;;4992399;28;20873;-53
2023/09/09 06:12:07;;;;;;;497.25;115.85;;;;;;;;;;4994044;28;20042;-54
2023/09/09 06:14:32;;;;;;;339.58;92.40;;;;;;;;;;4995092;28;20393;-55
2023/09/09 06:16:57;;;;;;;466.80;99.73;;;;;;;;;;4992173;28;20034;-55
2023/09/09 06:19:23;;;;;;;390.90;102.63;;;;;;;;;;4995413;28;20367;-53
2023/09/09 06:21:48;;;;;;;382.25;106.30;;;;;;;;;;4993700;28;20383;-54
2023/09/09 06:24:13;;;;;;;362.85;86.20;;;;;;;;;;4992814;28;20046;-53
2023/09/09 06:26:39;;;;;;;300.47;86.23;;;;;;;;;;4993597;28;20094;-53
2023/09/09 06:29:04;;;;;;;453.23;112.97;;;;;;;;;;4995349;28;20404;-55
2023/09/09 06:31:29;;;;;;;386.33;105.25;;;;;;;;;;4995694;28;20041;-57
2023/09/09 06:33:55;;;;;;;449.77;110.85;;;;;;;;;;4997402;28;20011;-56
2023/09/09 06:36:21;;;;;;;355.17;106.80;;;;;;;;;;4995646;28;20038;-54
2023/09/09 06:38:47;;;;;;;405.17;110.22;;;;;;;;;;4999599;28;20269;-54
2023/09/09 06:41:13;;;;;;;400.77;110.15;;;;;;;;;;4995363;28;20071;-55
2023/09/09 06:43:38;;;;;;;356.00;107.95;;;;;;;;;;4997175;28;20061;-56
2023/09/09 06:46:03;;;;;;;447.10;112.93;;;;;;;;;;4995098;28;20037;-54
2023/09/09 06:48:30;;;;;;;392.57;109.00;;;;;;;;;;4996165;28;20654;-56
2023/09/09 06:50:55;;;;;;;433.55;110.25;;;;;;;;;;4993826;28;20025;-55
2023/09/09 06:53:21;;;;;;;395.38;134.27;;;;;;;;;;4997729;28;20023;-57
2023/09/09 06:55:46;;;;;;;390.48;115.47;;;;;;;;;;4994423;28;20359;-56
2023/09/09 06:58:14;;;;;;;357.80;118.28;;;;;;;;;;4992966;28;21464;-57
2023/09/09 07:00:40;;;;;;;440.27;213.32;;;;;;;;;;4999724;28;20122;-57
2023/09/09 07:03:07;;;;;;;605.55;326.92;;;;;;;;;;4993341;28;20140;-54
2023/09/09 07:05:32;;;;;;;521.30;386.23;;;;;;;;;;4995623;28;20046;-56
2023/09/09 07:07:57;;;;;;;608.60;331.38;;;;;;;;;;4991853;28;20023;-57
2023/09/09 07:10:23;;;;;;;494.63;247.57;;;;;;;;;;4994783;28;20038;-56
2023/09/09 07:12:49;;;;;;;520.17;332.33;;;;;;;;;;4994057;28;20026;-55
2023/09/09 07:15:15;;;;;;;568.75;403.95;;;;;;;;;;4994431;28;20030;-55
2023/09/09 07:17:43;;;;;;;594.13;416.88;;;;;;;;;;4993608;28;20281;-56
2023/09/09 07:20:08;;;;;;;600.85;293.70;;;;;;;;;;4991753;28;20112;-55
2023/09/09 07:22:34;;;;;;;511.08;318.92;;;;;;;;;;4995447;28;20105;-56
2023/09/09 07:24:59;;;;;;;603.53;310.30;;;;;;;;;;4993560;28;20024;-57
2023/09/09 07:27:24;;;;;;;585.03;402.30;;;;;;;;;;4994987;28;20617;-57
2023/09/09 07:29:49;;;;;;;550.97;359.93;;;;;;;;;;4992429;28;20026;-54
2023/09/09 07:32:15;;;;;;;582.10;375.87;;;;;;;;;;4993505;28;20104;-53
2023/09/09 07:34:40;;;;;;;535.20;365.95;;;;;;;;;;4992323;28;20662;-53
2023/09/09 07:37:05;;;;;;;627.33;417.23;;;;;;;;;;4990434;28;20061;-53
2023/09/09 07:39:43;;;;;;;538.57;363.87;;;;;;;;;;4991950;28;20026;-55
2023/09/09 07:42:08;;;;;;;669.70;407.60;;;;;;;;;;4991020;28;20080;-55
2023/09/09 07:44:33;;;;;;;532.43;375.33;;;;;;;;;;4989561;28;20392;-56
2023/09/09 07:46:59;;;;;;;571.47;374.27;;;;;;;;;;4991804;28;20359;-56
2023/09/09 07:49:24;;;;;;;578.67;379.70;;;;;;;;;;4990792;28;20030;-53
2023/09/09 07:51:50;;;;;;;525.03;319.60;;;;;;;;;;4992595;28;20533;-55
2023/09/09 07:54:15;;;;;;;575.87;329.17;;;;;;;;;;4996400;28;20025;-56
2023/09/09 07:56:45;;;;;;;560.67;434.67;;;;;;;;;;4993976;28;20277;-56
2023/09/09 07:59:10;;;;;;;621.33;345.60;;;;;;;;;;4995706;28;20036;-53
2023/09/09 08:01:35;;;;;;;513.73;370.70;;;;;;;;;;4991908;28;20038;-53
2023/09/09 08:04:01;;;;;;;586.80;367.20;;;;;;;;;;4994022;28;20534;-58
2023/09/09 08:06:26;;;;;;;523.83;355.43;;;;;;;;;;4998167;28;20096;-56
2023/09/09 08:08:52;;;;;;;557.90;380.87;;;;;;;;;;4996747;28;20399;-53
2023/09/09 08:11:17;;;;;;;592.97;440.95;;;;;;;;;;4996935;28;20033;-54
2023/09/09 08:13:42;;;;;;;622.27;420.83;;;;;;;;;;4997090;28;20033;-57
2023/09/09 08:16:08;;;;;;;629.73;395.37;;;;;;;;;;4995326;28;20068;-54
2023/09/09 08:18:33;;;;;;;484.80;372.13;;;;;;;;;;4998061;28;20033;-59
2023/09/09 08:20:58;;;;;;;519.30;394.87;;;;;;;;;;4997214;28;20048;-57
2023/09/09 08:23:24;;;;;;;487.77;316.05;;;;;;;;;;4996859;28;20277;-58
2023/09/09 08:25:49;;;;;;;462.67;349.97;;;;;;;;;;4998903;28;20389;-58
2023/09/09 08:28:14;;;;;;;652.08;423.50;;;;;;;;;;4995505;28;20319;-56
2023/09/09 08:30:40;;;;;;;480.48;384.05;;;;;;;;;;4997548;28;20057;-56
2023/09/09 08:33:05;;;;;;;610.57;418.53;;;;;;;;;;4997426;28;20141;-54
2023/09/09 08:35:31;;;;;;;540.77;362.07;;;;;;;;;;4993705;28;20265;-55
2023/09/09 08:37:56;;;;;;;491.83;286.23;;;;;;;;;;4997980;28;20029;-56
2023/09/09 08:40:21;;;;;;;539.37;435.37;;;;;;;;;;4998103;28;20044;-54
2023/09/09 08:42:49;;;;;;;508.63;322.37;;;;;;;;;;5000108;28;20029;-55
2023/09/09 08:45:17;;;;;;;666.50;416.65;;;;;;;;;;4992793;28;20499;-55
2023/09/09 08:47:44;;;;;;;543.45;407.80;;;;;;;;;;5002072;28;20088;-56
2023/09/09 08:50:10;;;;;;;750.50;450.73;;;;;;;;;;4996492;28;20021;-54
2023/09/09 08:52:35;;;;;;;554.35;403.90;;;;;;;;;;4992273;28;20049;-56
2023/09/09 08:55:01;;;;;;;606.10;414.27;;;;;;;;;;4992743;28;20110;-55
2023/09/09 08:57:28;;;;;;;566.87;442.07;;;;;;;;;;4995834;28;20293;-57
2023/09/09 08:59:53;;;;;;;567.60;392.85;;;;;;;;;;4997272;28;20273;-57
2023/09/09 09:02:18;;;;;;;480.10;393.92;;;;;;;;;;4993546;28;20366;-55
2023/09/09 09:04:45;;;;;;;462.00;282.67;;;;;;;;;;4999382;28;20037;-54
2023/09/09 09:07:10;;;;;;;527.53;303.02;;;;;;;;;;4991892;28;20424;-54
2023/09/09 09:09:36;;;;;;;462.13;340.85;;;;;;;;;;4995545;28;20488;-53
2023/09/09 09:12:03;;;;;;;571.20;382.15;;;;;;;;;;4995084;28;20088;-55
2023/09/09 09:14:28;;;;;;;508.02;320.38;;;;;;;;;;4992712;28;20104;-54
2023/09/09 09:16:53;;;;;;;591.58;456.30;;;;;;;;;;4992680;28;20124;-55
2023/09/09 09:19:21;;;;;;;550.20;413.77;;;;;;;;;;4990578;28;20082;-56
2023/09/09 09:21:46;;;;;;;549.13;350.33;;;;;;;;;;4992237;28;20034;-54
2023/09/09 09:24:13;;;;;;;624.03;407.67;;;;;;;;;;4992034;28;20022;-55
2023/09/09 09:26:39;;;;;;;533.83;408.52;;;;;;;;;;4994475;28;20733;-55
2023/09/09 09:29:04;;;;;;;614.87;380.60;;;;;;;;;;4992042;28;20033;-54
2023/09/09 09:31:30;;;;;;;507.60;317.88;;;;;;;;;;4991469;28;20578;-55
2023/09/09 09:33:56;;;;;;;637.60;447.08;;;;;;;;;;4994076;28;20018;-54
2023/09/09 09:36:22;;;;;;;540.38;349.85;;;;;;;;;;4992635;28;20038;-56
2023/09/09 09:38:50;;;;;;;521.17;355.50;;;;;;;;;;4991401;28;20032;-55
2023/09/09 09:41:19;;;;;;;731.67;399.88;;;;;;;;;;4986230;28;20081;-54
2023/09/09 09:43:48;;;;;;;458.17;289.75;;;;;;;;;;4992034;28;20059;-54
2023/09/09 09:46:14;;;;;;;523.15;306.17;;;;;;;;;;4992713;28;20531;-56
2023/09/09 09:48:39;;;;;;;532.05;391.10;;;;;;;;;;4993351;28;20065;-54
2023/09/09 09:51:04;;;;;;;540.70;371.63;;;;;;;;;;4993346;28;20335;-56
2023/09/09 09:53:29;;;;;;;475.27;340.93;;;;;;;;;;4991714;28;20474;-56
2023/09/09 09:55:55;;;;;;;497.13;239.23;;;;;;;;;;4992626;28;20038;-54
2023/09/09 09:58:22;;;;;;;725.70;428.13;;;;;;;;;;4990900;28;20037;-56
2023/09/09 10:00:49;;;;;;;610.53;493.60;;;;;;;;;;4990326;28;20039;-56
2023/09/09 10:03:17;;;;;;;718.20;366.55;;;;;;;;;;4989707;28;20871;-56
2023/09/09 10:05:43;;;;;;;635.70;418.67;;;;;;;;;;4991929;28;20040;-55
2023/09/09 10:08:17;;;;;;;703.67;432.30;;;;;;;;;;4995907;28;20342;-56
2023/09/09 10:10:48;;;;;;;661.45;487.73;;;;;;;;;;4992944;28;20038;-55
2023/09/09 10:13:17;;;;;;;621.58;318.42;;;;;;;;;;4995696;28;20517;-55
2023/09/09 10:15:43;;;;;;;527.70;296.33;;;;;;;;;;4993749;28;20031;-55
2023/09/09 10:18:08;;;;;;;688.13;396.88;;;;;;;;;;4997420;28;20044;-57
2023/09/09 10:20:34;;;;;;;627.55;424.88;;;;;;;;;;4996162;28;20034;-57
2023/09/09 10:23:00;;;;;;;653.42;367.45;;;;;;;;;;4993375;28;20048;-56
2023/09/09 10:25:26;;;;;;;627.45;349.90;;;;;;;;;;4984264;28;20025;-55
2023/09/09 10:27:52;;;;;;;635.35;476.00;;;;;;;;;;4992666;28;20108;-55
2023/09/09 10:30:18;;;;;;;673.13;376.27;;;;;;;;;;4989964;28;20024;-55
2023/09/09 10:32:44;;;;;;;481.25;343.38;;;;;;;;;;4994937;28;20034;-54
2023/09/09 10:35:10;;;;;;;519.17;218.57;;;;;;;;;;4992725;28;20081;-55
2023/09/09 10:37:36;;;;;;;531.95;325.55;;;;;;;;;;4995860;28;20006;-56
2023/09/09 10:40:05;;;;;;;533.47;345.40;;;;;;;;;;4996192;28;20503;-54
2023/09/09 10:42:31;;;;;;;1313.75;659.17;;;;;;;;;;4993237;28;20030;-56
2023/09/09 10:45:17;;;;;;;629.08;375.05;;;;;;;;;;4991978;28;20014;-57
2023/09/09 10:47:53;;;;;;;596.38;390.10;;;;;;;;;;4991546;28;20030;-55
2023/09/09 10:50:19;;;;;;;761.65;402.58;;;;;;;;;;4988854;28;20565;-56
2023/09/09 10:52:44;;;;;;;494.10;381.13;;;;;;;;;;4994620;28;20471;-57
2023/09/09 10:55:13;;;;;;;656.33;369.70;;;;;;;;;;4990826;28;20021;-57
2023/09/09 10:57:38;;;;;;;525.00;345.35;;;;;;;;;;4995573;28;20049;-57
2023/09/09 11:00:10;;;;;;;552.30;340.93;;;;;;;;;;4992459;28;20021;-57
2023/09/09 11:02:48;;;;;;;524.95;368.55;;;;;;;;;;4993903;28;20296;-57
2023/09/09 11:05:14;;;;;;;626.08;267.00;;;;;;;;;;4992791;28;20392;-55
2023/09/09 11:07:40;;;;;;;643.63;484.77;;;;;;;;;;4993683;28;20052;-58
2023/09/09 11:10:07;;;;;;;634.75;431.52;;;;;;;;;;4994094;28;20030;-56
2023/09/09 11:12:32;;;;;;;526.92;351.88;;;;;;;;;;4991162;28;20037;-55
2023/09/09 11:15:04;;;;;;;519.73;323.63;;;;;;;;;;4993145;28;20025;-56
2023/09/09 11:17:30;;;;;;;561.03;355.23;;;;;;;;;;4995980;28;20488;-56
2023/09/09 11:19:55;;;;;;;555.33;360.75;;;;;;;;;;4990862;28;20041;-55
2023/09/09 11:22:21;;;;;;;633.28;358.80;;;;;;;;;;4990648;28;20738;-55
2023/09/09 11:24:47;;;;;;;573.08;287.67;;;;;;;;;;4992420;28;20491;-56
2023/09/09 11:27:12;;;;;;;677.58;382.05;;;;;;;;;;4990281;28;20034;-57
2023/09/09 11:29:38;;;;;;;528.07;314.90;;;;;;;;;;5000304;28;20026;-57
2023/09/09 11:32:07;;;;;;;588.50;353.37;;;;;;;;;;4999745;28;20070;-56
2023/09/09 11:34:33;;;;;;;503.33;314.92;;;;;;;;;;4993871;28;20257;-55
2023/09/09 11:36:59;;;;;;;625.67;413.52;;;;;;;;;;4997210;28;20738;-57
2023/09/09 11:39:24;;;;;;;700.47;368.10;;;;;;;;;;4995734;28;20030;-55
2023/09/09 11:41:50;;;;;;;667.30;472.70;;;;;;;;;;4997598;28;20034;-56
2023/09/09 11:44:15;;;;;;;679.38;169.98;;;;;;;;;;5012454;28;20289;-56
2023/09/09 11:46:41;;;;;;;564.45;306.55;;;;;;;;;;4995997;28;20072;-55
2023/09/09 11:49:06;;;;;;;567.17;415.52;;;;;;;;;;4995861;28;20403;-55
2023/09/09 11:51:32;;;;;;;483.97;215.20;;;;;;;;;;4998838;28;20103;-56
2023/09/09 11:53:58;;;;;;;582.97;263.08;;;;;;;;;;4993309;28;20335;-57
2023/09/09 11:56:23;;;;;;;705.13;381.17;;;;;;;;;;4994099;28;20153;-57
2023/09/09 11:58:49;;;;;;;583.70;224.40;;;;;;;;;;4999043;28;20598;-56
2023/09/09 12:01:15;;;;;;;631.55;270.60;;;;;;;;;;4995462;28;20456;-56
2023/09/09 12:03:40;;;;;;;574.95;392.40;;;;;;;;;;5000140;28;20399;-56
2023/09/09 12:06:07;;;;;;;650.83;399.92;;;;;;;;;;4990663;28;20034;-57
2023/09/09 12:08:32;;;;;;;576.90;397.27;;;;;;;;;;4993117;28;20031;-57
2023/09/09 12:10:58;;;;;;;595.90;434.08;;;;;;;;;;4992307;28;20062;-57
2023/09/09 12:13:24;;;;;;;703.03;398.52;;;;;;;;;;4989941;28;20026;-57
2023/09/09 12:15:49;;;;;;;549.55;323.17;;;;;;;;;;4995883;28;20471;-59
2023/09/09 12:18:14;;;;;;;725.90;281.10;;;;;;;;;;4993275;28;20116;-57
2023/09/09 12:20:59;;;;;;;625.83;310.00;;;;;;;;;;4993974;28;20034;-58
2023/09/09 12:23:29;;;;;;;639.45;250.60;;;;;;;;;;4995336;28;20038;-56
2023/09/09 12:25:54;;;;;;;656.17;447.05;;;;;;;;;;4999149;28;20225;-56
2023/09/09 12:28:19;;;;;;;794.40;289.10;;;;;;;;;;4997113;28;20061;-57
2023/09/09 12:30:44;;;;;;;618.13;269.73;;;;;;;;;;4994366;28;20065;-56
2023/09/09 12:33:11;;;;;;;680.07;486.07;;;;;;;;;;4996532;28;20022;-57
2023/09/09 12:35:37;;;;;;;687.38;445.98;;;;;;;;;;4997370;28;20044;-55
2023/09/09 12:38:03;;;;;;;558.00;297.15;;;;;;;;;;4994792;28;20249;-55
2023/09/09 12:40:29;;;;;;;746.17;411.15;;;;;;;;;;4992057;28;20695;-55
2023/09/09 12:42:55;;;;;;;584.17;299.08;;;;;;;;;;4993905;28;20026;-56
2023/09/09 12:45:22;;;;;;;742.95;340.70;;;;;;;;;;4993930;28;20026;-54
2023/09/09 12:47:49;;;;;;;620.35;302.02;;;;;;;;;;4994154;28;20169;-58
2023/09/09 12:50:15;;;;;;;733.22;326.08;;;;;;;;;;4993719;28;20021;-55
2023/09/09 12:52:43;;;;;;;664.47;344.93;;;;;;;;;;4995677;28;20018;-56
2023/09/09 12:55:08;;;;;;;604.15;360.10;;;;;;;;;;4998813;28;20033;-56
2023/09/09 12:57:33;;;;;;;594.28;351.55;;;;;;;;;;4995587;28;20219;-55
2023/09/09 12:59:58;;;;;;;643.70;320.70;;;;;;;;;;4994142;28;20188;-57
2023/09/09 13:02:24;;;;;;;669.83;255.37;;;;;;;;;;4992405;28;20334;-56
2023/09/09 13:04:49;;;;;;;562.27;331.87;;;;;;;;;;4995425;28;20030;-57
2023/09/09 13:07:14;;;;;;;652.20;346.63;;;;;;;;;;4994076;28;20083;-54
2023/09/09 13:09:39;;;;;;;583.43;366.77;;;;;;;;;;4996777;28;20291;-57
2023/09/09 13:12:05;;;;;;;610.80;389.50;;;;;;;;;;4992335;28;20037;-55
2023/09/09 13:14:30;;;;;;;715.17;354.95;;;;;;;;;;4991488;28;20725;-56
2023/09/09 13:16:55;;;;;;;599.87;410.43;;;;;;;;;;4995076;28;20026;-56
2023/09/09 13:19:20;;;;;;;641.43;245.80;;;;;;;;;;4994011;28;20028;-57
2023/09/09 13:21:46;;;;;;;644.20;489.10;;;;;;;;;;4993835;28;20289;-55
2023/09/09 13:24:11;;;;;;;596.58;402.77;;;;;;;;;;4994335;28;20470;-58
2023/09/09 13:26:36;;;;;;;565.87;302.63;;;;;;;;;;4993769;28;20037;-56
2023/09/09 13:29:02;;;;;;;572.70;304.53;;;;;;;;;;4992595;28;20378;-54
2023/09/09 13:31:27;;;;;;;591.90;279.33;;;;;;;;;;4994722;28;20033;-57
2023/09/09 13:33:52;;;;;;;490.20;317.43;;;;;;;;;;4997173;28;20066;-55
2023/09/09 13:36:17;;;;;;;672.97;323.03;;;;;;;;;;4999064;28;20043;-55
2023/09/09 13:38:43;;;;;;;502.77;256.07;;;;;;;;;;4994260;28;20273;-55
2023/09/09 13:41:08;;;;;;;490.83;288.55;;;;;;;;;;4994989;28;20311;-56
2023/09/09 13:43:33;;;;;;;537.50;319.73;;;;;;;;;;4994114;28;21363;-55